createdAt,value
2019-04-28T00:01:21.486Z,5.67
2019-04-28T00:03:51.590Z,5.67
2019-04-28T00:06:21.228Z,5.86
2019-04-28T00:08:51.769Z,5.73
2019-04-28T00:11:21.923Z,5.78
2019-04-28T00:13:53.712Z,5.91
2019-04-28T00:16:22.937Z,5.87
2019-04-28T00:18:53.607Z,5.82
2019-04-28T00:21:46.805Z,5.96
2019-04-28T00:24:34.553Z,5.96
2019-04-28T00:27:08.964Z,6.29
2019-04-28T00:29:41.321Z,6.29
2019-04-28T00:32:11.222Z,6.48
2019-04-28T00:34:41.358Z,7.10
2019-04-28T00:37:17.174Z,7.10
2019-04-28T00:39:46.491Z,6.21
2019-04-28T00:42:16.974Z,5.95
2019-04-28T00:44:47.463Z,5.95
2019-04-28T00:47:16.855Z,6.68
2019-04-28T00:49:46.615Z,6.68
2019-04-28T00:52:22.314Z,6.95
2019-04-28T00:54:52.618Z,7.03
2019-04-28T00:57:24.458Z,7.22
2019-04-28T00:59:58.455Z,7.32
2019-04-28T01:02:41.407Z,7.22
2019-04-28T01:05:11.989Z,7.49
2019-04-28T01:07:41.603Z,7.08
2019-04-28T01:10:12.513Z,6.97
2019-04-28T01:12:41.307Z,6.97
2019-04-28T01:15:20.193Z,7.20
2019-04-28T01:17:56.718Z,7.40
2019-04-28T01:20:25.650Z,7.32
2019-04-28T01:22:55.821Z,7.24
2019-04-28T01:25:25.649Z,7.40
2019-04-28T01:27:56.518Z,7.29
2019-04-28T01:30:55.563Z,7.29
2019-04-28T01:34:03.597Z,6.83
2019-04-28T01:36:34.664Z,6.84
2019-04-28T01:39:05.935Z,6.84
2019-04-28T01:41:36.766Z,6.92
2019-04-28T01:44:05.895Z,6.91
2019-04-28T01:46:34.991Z,7.20
2019-04-28T01:49:04.295Z,7.14
2019-04-28T01:51:33.514Z,7.12
2019-04-28T01:54:02.772Z,7.22
2019-04-28T01:56:30.892Z,7.05
2019-04-28T01:59:00.356Z,7.14
2019-04-28T02:01:30.152Z,7.24
2019-04-28T02:04:00.272Z,7.34
2019-04-28T02:06:30.061Z,7.13
2019-04-28T02:09:00.719Z,7.31
2019-04-28T02:11:30.459Z,7.48
2019-04-28T02:13:59.785Z,7.54
2019-04-28T02:16:29.711Z,7.46
2019-04-28T02:18:59.775Z,7.25
2019-04-28T02:22:00.833Z,6.99
2019-04-28T02:24:34.297Z,7.15
2019-04-28T02:27:03.609Z,7.58
2019-04-28T02:29:32.576Z,7.47
2019-04-28T02:32:02.472Z,7.51
2019-04-28T02:34:31.424Z,7.51
2019-04-28T02:37:01.632Z,7.39
2019-04-28T02:39:32.049Z,7.39
2019-04-28T02:42:01.722Z,7.55
2019-04-28T02:44:34.724Z,7.68
2019-04-28T02:47:02.736Z,7.32
2019-04-28T02:49:36.883Z,6.81
2019-04-28T02:52:16.835Z,6.68
2019-04-28T02:54:46.102Z,7.10
2019-04-28T02:57:14.983Z,7.23
2019-04-28T02:59:44.827Z,7.16
2019-04-28T03:02:14.484Z,6.75
2019-04-28T03:04:43.654Z,6.65
2019-04-28T03:07:14.575Z,6.96
2019-04-28T03:09:43.308Z,6.96
2019-04-28T03:12:12.566Z,6.92
2019-04-28T03:14:44.013Z,7.12
2019-04-28T03:17:13.046Z,7.04
2019-04-28T03:19:42.601Z,6.34
2019-04-28T03:22:11.776Z,6.31
2019-04-28T03:24:42.293Z,6.31
2019-04-28T03:27:42.980Z,6.59
2019-04-28T03:30:33.783Z,6.60
2019-04-28T03:33:10.662Z,6.62
2019-04-28T03:35:34.375Z,6.37
2019-04-28T03:38:04.560Z,6.37
2019-04-28T03:40:33.893Z,6.50
2019-04-28T03:43:03.376Z,6.50
2019-04-28T03:45:40.993Z,6.69
2019-04-28T03:48:11.492Z,6.89
2019-04-28T03:50:41.325Z,6.89
2019-04-28T03:53:11.294Z,7.03
2019-04-28T03:55:41.694Z,7.10
2019-04-28T03:58:11.060Z,6.72
2019-04-28T04:00:40.911Z,6.78
2019-04-28T04:03:11.074Z,6.58
2019-04-28T04:05:40.854Z,6.50
2019-04-28T04:08:11.033Z,6.26
2019-04-28T04:11:15.647Z,6.37
2019-04-28T04:14:04.615Z,6.42
2019-04-28T04:16:56.297Z,6.20
2019-04-28T04:19:26.290Z,6.20
2019-04-28T04:21:57.012Z,6.65
2019-04-28T04:24:26.901Z,6.25
2019-04-28T04:26:57.023Z,6.41
2019-04-28T04:29:26.953Z,6.40
2019-04-28T04:32:10.098Z,6.49
2019-04-28T04:34:30.171Z,6.53
2019-04-28T04:37:00.681Z,6.81
2019-04-28T04:39:30.428Z,6.61
2019-04-28T04:42:00.669Z,6.88
2019-04-28T04:44:30.986Z,7.13
2019-04-28T04:47:01.061Z,6.94
2019-04-28T04:49:31.583Z,7.18
2019-04-28T04:52:01.239Z,7.56
2019-04-28T04:54:32.753Z,7.54
2019-04-28T04:57:01.482Z,7.31
2019-04-28T04:59:32.322Z,7.34
2019-04-28T05:02:19.125Z,7.05
2019-04-28T05:05:01.638Z,7.47
2019-04-28T05:07:30.716Z,7.47
2019-04-28T05:09:59.550Z,7.47
2019-04-28T05:12:30.611Z,7.67
2019-04-28T05:15:00.506Z,7.92
2019-04-28T05:17:30.185Z,8.21
2019-04-28T05:20:01.248Z,8.21
2019-04-28T05:22:33.469Z,8.39
2019-04-28T05:25:11.957Z,8.39
2019-04-28T05:27:41.610Z,8.33
2019-04-28T05:30:23.631Z,8.33
2019-04-28T05:32:56.235Z,8.33
2019-04-28T05:35:25.217Z,8.64
2019-04-28T05:37:55.776Z,8.57
2019-04-28T05:40:26.061Z,8.86
2019-04-28T05:43:00.691Z,9.17
2019-04-28T05:45:32.167Z,10.00
2019-04-28T05:48:01.885Z,10.00
2019-04-28T05:50:50.615Z,11.72
2019-04-28T05:53:26.262Z,14.69
2019-04-28T05:56:24.303Z,17.75
2019-04-28T05:58:56.974Z,19.90
2019-04-28T06:02:00.643Z,21.05
2019-04-28T06:04:30.529Z,22.17
2019-04-28T06:07:05.718Z,23.24
2019-04-28T06:09:45.797Z,24.99
2019-04-28T06:12:16.032Z,25.10
2019-04-28T06:14:50.016Z,26.01
2019-04-28T06:17:20.597Z,26.39
2019-04-28T06:19:50.445Z,26.51
2019-04-28T06:22:19.882Z,27.57
2019-04-28T06:24:48.985Z,27.57
2019-04-28T06:27:18.105Z,27.56
2019-04-28T06:29:47.401Z,27.49
2019-04-28T06:32:16.709Z,27.60
2019-04-28T06:34:46.063Z,28.06
2019-04-28T06:37:15.356Z,28.41
2019-04-28T06:39:47.212Z,29.09
2019-04-28T06:42:14.933Z,30.46
2019-04-28T06:44:44.442Z,30.46
2019-04-28T06:47:13.454Z,30.11
2019-04-28T06:49:42.613Z,30.94
2019-04-28T06:52:10.833Z,30.09
2019-04-28T06:54:39.916Z,30.78
2019-04-28T06:57:10.889Z,32.11
2019-04-28T06:59:39.951Z,31.76
2019-04-28T07:02:09.002Z,30.71
2019-04-28T07:04:37.936Z,30.43
2019-04-28T07:07:07.005Z,30.22
2019-04-28T07:09:36.044Z,29.91
2019-04-28T07:12:05.089Z,28.73
2019-04-28T07:14:35.104Z,25.38
2019-04-28T07:17:03.920Z,25.59
2019-04-28T07:19:33.509Z,26.01
2019-04-28T07:22:28.549Z,22.32
2019-04-28T07:24:58.841Z,20.74
2019-04-28T07:27:28.955Z,20.74
2019-04-28T07:29:59.119Z,20.64
2019-04-28T07:32:28.709Z,19.93
2019-04-28T07:34:57.547Z,19.01
2019-04-28T07:37:26.955Z,18.41
2019-04-28T07:39:57.819Z,18.41
2019-04-28T07:42:27.574Z,18.02
2019-04-28T07:44:56.559Z,17.12
2019-04-28T07:47:26.545Z,17.12
2019-04-28T07:49:55.231Z,17.67
2019-04-28T07:52:33.563Z,17.73
2019-04-28T07:55:02.905Z,18.29
2019-04-28T07:57:33.562Z,18.29
2019-04-28T08:00:03.492Z,20.35
2019-04-28T08:02:34.635Z,20.35
2019-04-28T08:05:04.103Z,21.63
2019-04-28T08:07:36.351Z,21.63
2019-04-28T08:10:06.153Z,20.87
2019-04-28T08:12:36.929Z,19.71
2019-04-28T08:15:06.542Z,17.43
2019-04-28T08:17:35.807Z,14.87
2019-04-28T08:20:08.619Z,12.62
2019-04-28T08:22:38.739Z,11.57
2019-04-28T08:25:11.316Z,10.97
2019-04-28T08:27:43.473Z,10.76
2019-04-28T08:30:15.786Z,10.43
2019-04-28T08:32:56.563Z,10.47
2019-04-28T08:35:25.669Z,11.04
2019-04-28T08:37:57.966Z,11.04
2019-04-28T08:40:27.747Z,11.16
2019-04-28T08:42:55.861Z,11.45
2019-04-28T08:45:24.726Z,11.59
2019-04-28T08:47:53.758Z,12.10
2019-04-28T08:50:21.885Z,13.22
2019-04-28T08:52:50.908Z,13.89
2019-04-28T08:55:20.119Z,15.43
2019-04-28T08:57:49.555Z,17.30
2019-04-28T09:00:19.643Z,17.72
2019-04-28T09:02:48.253Z,19.10
2019-04-28T09:05:17.608Z,20.59
2019-04-28T09:07:46.740Z,22.45
2019-04-28T09:10:16.138Z,22.45
2019-04-28T09:12:45.098Z,23.28
2019-04-28T09:15:14.124Z,24.32
2019-04-28T09:17:42.965Z,24.18
2019-04-28T09:20:12.151Z,26.96
2019-04-28T09:22:42.044Z,28.53
2019-04-28T09:25:14.017Z,29.68
2019-04-28T09:27:42.922Z,30.66
2019-04-28T09:30:12.094Z,26.82
2019-04-28T09:32:44.148Z,27.21
2019-04-28T09:35:13.553Z,27.71
2019-04-28T09:37:43.155Z,23.38
2019-04-28T09:40:14.011Z,26.46
2019-04-28T09:43:02.514Z,29.04
2019-04-28T09:45:55.308Z,27.56
2019-04-28T09:48:24.565Z,27.56
2019-04-28T09:50:53.586Z,27.76
2019-04-28T09:53:21.848Z,24.88
2019-04-28T09:55:50.931Z,24.88
2019-04-28T09:58:20.037Z,24.10
2019-04-28T10:00:49.170Z,22.37
2019-04-28T10:03:18.293Z,22.32
2019-04-28T10:05:48.445Z,22.30
2019-04-28T10:08:17.568Z,22.30
2019-04-28T10:10:46.633Z,19.73
2019-04-28T10:13:17.132Z,19.73
2019-04-28T10:15:46.316Z,17.39
2019-04-28T10:18:15.455Z,15.87
2019-04-28T10:20:44.465Z,13.72
2019-04-28T10:23:14.289Z,10.06
2019-04-28T10:25:43.577Z,8.34
2019-04-28T10:28:12.757Z,8.21
2019-04-28T10:30:40.884Z,8.21
2019-04-28T10:33:09.949Z,8.37
2019-04-28T10:35:38.985Z,8.88
2019-04-28T10:38:08.290Z,9.74
2019-04-28T10:40:45.291Z,10.22
2019-04-28T10:43:14.445Z,10.54
2019-04-28T10:45:46.110Z,11.13
2019-04-28T10:48:15.478Z,11.64
2019-04-28T10:50:44.942Z,11.83
2019-04-28T10:53:14.070Z,11.83
2019-04-28T10:55:43.462Z,12.34
2019-04-28T10:58:12.587Z,12.81
2019-04-28T11:00:41.686Z,12.81
2019-04-28T11:03:10.584Z,14.39
2019-04-28T11:05:43.507Z,14.39
2019-04-28T11:08:32.025Z,15.67
2019-04-28T11:11:07.160Z,16.10
2019-04-28T11:13:36.057Z,19.31
2019-04-28T11:16:05.301Z,22.17
2019-04-28T11:18:34.510Z,23.75
2019-04-28T11:21:03.766Z,20.99
2019-04-28T11:23:32.358Z,19.50
2019-04-28T11:26:01.987Z,19.51
2019-04-28T11:28:31.551Z,18.73
2019-04-28T11:31:01.370Z,19.70
2019-04-28T11:33:37.607Z,19.93
2019-04-28T11:36:06.027Z,19.68
2019-04-28T11:38:35.310Z,19.76
2019-04-28T11:41:04.784Z,19.34
2019-04-28T11:43:33.916Z,18.49
2019-04-28T11:46:04.831Z,18.77
2019-04-28T11:48:34.128Z,18.63
2019-04-28T11:51:03.483Z,17.57
2019-04-28T11:53:32.733Z,17.16
2019-04-28T11:56:01.510Z,16.43
2019-04-28T11:58:31.150Z,16.00
2019-04-28T12:01:04.597Z,16.00
2019-04-28T12:03:33.857Z,14.87
2019-04-28T12:06:02.933Z,14.87
2019-04-28T12:08:34.022Z,14.04
2019-04-28T12:11:14.284Z,14.10
2019-04-28T12:14:08.612Z,13.49
2019-04-28T12:17:15.961Z,13.54
2019-04-28T12:19:51.594Z,13.54
2019-04-28T12:22:21.022Z,15.05
2019-04-28T12:24:50.567Z,15.05
2019-04-28T12:27:19.508Z,14.71
2019-04-28T12:29:49.144Z,14.71
2019-04-28T12:32:18.846Z,14.86
2019-04-28T12:34:48.639Z,15.42
2019-04-28T12:37:18.031Z,15.62
2019-04-28T12:39:47.815Z,15.45
2019-04-28T12:42:17.631Z,15.98
2019-04-28T12:44:47.064Z,16.78
2019-04-28T12:47:18.282Z,16.03
2019-04-28T12:49:59.895Z,16.58
2019-04-28T12:52:30.295Z,16.44
2019-04-28T12:55:00.029Z,16.54
2019-04-28T12:57:29.993Z,16.44
2019-04-28T13:00:18.302Z,16.69
2019-04-28T13:03:06.522Z,16.96
2019-04-28T13:05:38.015Z,17.42
2019-04-28T13:08:07.487Z,17.89
2019-04-28T13:10:37.012Z,18.20
2019-04-28T13:13:06.628Z,18.62
2019-04-28T13:15:35.586Z,18.91
2019-04-28T13:18:04.189Z,18.85
2019-04-28T13:20:33.366Z,17.95
2019-04-28T13:23:03.298Z,17.78
2019-04-28T13:25:33.298Z,18.53
2019-04-28T13:28:03.606Z,19.28
2019-04-28T13:33:21.746Z,20.32
2019-04-28T13:35:51.101Z,20.06
2019-04-28T13:38:21.302Z,19.39
2019-04-28T13:40:51.928Z,19.76
2019-04-28T13:43:21.112Z,20.02
2019-04-28T13:45:50.508Z,19.32
2019-04-28T13:48:19.970Z,18.17
2019-04-28T13:50:49.725Z,18.17
2019-04-28T13:53:19.173Z,17.83
2019-04-28T13:55:56.072Z,17.58
2019-04-28T13:58:45.301Z,18.28
2019-04-28T14:01:36.917Z,18.47
2019-04-28T14:04:23.904Z,19.65
2019-04-28T14:07:07.588Z,18.89
2019-04-28T14:09:38.494Z,17.68
2019-04-28T14:12:07.885Z,17.01
2019-04-28T14:14:39.679Z,16.90
2019-04-28T14:17:08.451Z,17.74
2019-04-28T14:19:39.049Z,15.34
2019-04-28T14:22:09.311Z,15.34
2019-04-28T14:24:40.561Z,16.75
2019-04-28T14:27:09.697Z,17.32
2019-04-28T14:29:39.496Z,17.45
2019-04-28T14:32:09.654Z,17.13
2019-04-28T14:34:39.298Z,17.54
2019-04-28T14:37:13.089Z,17.28
2019-04-28T14:39:48.646Z,17.28
2019-04-28T14:42:18.359Z,17.20
2019-04-28T14:44:49.533Z,16.98
2019-04-28T14:47:19.562Z,16.92
2019-04-28T14:49:49.287Z,16.72
2019-04-28T14:52:21.823Z,16.72
2019-04-28T14:54:52.914Z,16.85
2019-04-28T14:57:23.621Z,16.88
2019-04-28T14:59:53.658Z,16.60
2019-04-28T15:02:36.063Z,16.60
2019-04-28T15:05:35.004Z,16.90
2019-04-28T15:08:15.153Z,16.97
2019-04-28T15:11:13.558Z,17.33
2019-04-28T15:13:42.328Z,17.70
2019-04-28T15:16:11.741Z,17.70
2019-04-28T15:18:41.716Z,17.69
2019-04-28T15:21:12.459Z,17.38
2019-04-28T15:23:42.898Z,16.74
2019-04-28T15:26:13.542Z,17.17
2019-04-28T15:28:43.023Z,17.42
2019-04-28T15:31:13.139Z,17.42
2019-04-28T15:33:42.821Z,17.64
2019-04-28T15:36:12.289Z,17.60
2019-04-28T15:38:45.371Z,17.43
2019-04-28T15:41:26.728Z,17.21
2019-04-28T15:43:55.387Z,17.20
2019-04-28T15:46:29.093Z,16.68
2019-04-28T15:49:01.703Z,16.49
2019-04-28T15:51:32.422Z,15.98
2019-04-28T15:54:02.770Z,16.02
2019-04-28T15:56:43.288Z,15.78
2019-04-28T15:59:13.539Z,15.18
2019-04-28T16:01:43.307Z,15.05
2019-04-28T16:04:12.697Z,15.07
2019-04-28T16:06:42.978Z,14.85
2019-04-28T16:09:12.969Z,14.90
2019-04-28T16:11:43.812Z,14.59
2019-04-28T16:14:13.514Z,14.60
2019-04-28T16:16:43.043Z,14.31
2019-04-28T16:19:12.770Z,14.31
2019-04-28T16:21:42.503Z,14.50
2019-04-28T16:24:13.439Z,14.78
2019-04-28T16:26:43.939Z,14.86
2019-04-28T16:29:13.171Z,15.09
2019-04-28T16:31:43.490Z,15.16
2019-04-28T16:34:14.673Z,15.55
2019-04-28T16:36:46.054Z,15.55
2019-04-28T16:39:15.975Z,15.71
2019-04-28T16:41:48.298Z,16.08
2019-04-28T16:44:18.794Z,15.96
2019-04-28T16:46:50.897Z,16.31
2019-04-28T16:49:20.624Z,16.40
2019-04-28T16:51:51.122Z,16.26
2019-04-28T16:54:21.002Z,15.83
2019-04-28T16:57:02.282Z,15.61
2019-04-28T16:59:51.115Z,15.75
2019-04-28T17:02:32.492Z,15.72
2019-04-28T17:05:03.783Z,15.63
2019-04-28T17:07:34.894Z,15.46
2019-04-28T17:10:06.804Z,15.41
2019-04-28T17:12:36.610Z,15.46
2019-04-28T17:15:08.045Z,15.47
2019-04-28T17:17:38.400Z,15.47
2019-04-28T17:20:09.553Z,15.28
2019-04-28T17:22:39.882Z,15.28
2019-04-28T17:28:06.717Z,15.46
2019-04-28T17:30:36.612Z,15.16
2019-04-28T17:33:05.467Z,14.88
2019-04-28T17:35:35.538Z,14.87
2019-04-28T17:38:07.157Z,14.73
2019-04-28T17:40:37.625Z,14.67
2019-04-28T17:43:07.831Z,14.67
2019-04-28T17:45:38.557Z,14.21
2019-04-28T17:48:16.850Z,14.32
2019-04-28T17:50:46.377Z,14.32
2019-04-28T17:53:16.309Z,13.99
2019-04-28T17:55:46.336Z,13.76
2019-04-28T17:58:20.684Z,13.76
2019-04-28T18:01:25.341Z,13.68
2019-04-28T18:04:14.641Z,13.55
2019-04-28T18:06:47.311Z,13.42
2019-04-28T18:09:17.702Z,13.17
2019-04-28T18:11:46.600Z,13.23
2019-04-28T18:14:16.452Z,12.88
2019-04-28T18:17:14.622Z,12.88
2019-04-28T18:20:15.705Z,13.01
2019-04-28T18:22:44.971Z,13.02
2019-04-28T18:25:14.931Z,12.73
2019-04-28T18:27:44.553Z,12.71
2019-04-28T18:30:15.710Z,12.61
2019-04-28T18:33:04.675Z,12.74
2019-04-28T18:35:37.806Z,12.47
2019-04-28T18:38:13.705Z,12.25
2019-04-28T18:41:47.751Z,12.27
2019-04-28T18:44:20.071Z,12.00
2019-04-28T18:46:50.771Z,11.95
2019-04-28T18:52:07.139Z,11.63
2019-04-28T18:54:39.088Z,11.59
2019-04-28T18:57:08.763Z,11.53
2019-04-28T18:59:38.780Z,11.47
2019-04-28T19:02:20.874Z,11.50
2019-04-28T19:04:50.704Z,11.63
2019-04-28T19:07:34.939Z,11.47
2019-04-28T19:10:11.514Z,11.35
2019-04-28T19:12:56.476Z,11.29
2019-04-28T19:15:52.906Z,11.58
2019-04-28T19:18:27.785Z,11.58
2019-04-28T19:20:57.727Z,11.56
2019-04-28T19:23:27.565Z,11.34
2019-04-28T19:25:56.999Z,11.28
2019-04-28T19:28:26.195Z,11.35
2019-04-28T19:30:59.116Z,11.21
2019-04-28T19:33:28.538Z,11.20
2019-04-28T19:35:58.542Z,11.31
2019-04-28T19:38:28.248Z,11.13
2019-04-28T19:40:58.315Z,11.06
2019-04-28T19:43:29.044Z,10.87
2019-04-28T19:46:01.360Z,10.83
2019-04-28T19:48:31.894Z,10.83
2019-04-28T19:51:02.950Z,10.91
2019-04-28T19:56:32.157Z,10.64
2019-04-28T19:59:22.120Z,10.40
2019-04-28T20:01:53.336Z,10.07
2019-04-28T20:04:23.008Z,10.03
2019-04-28T20:06:54.580Z,9.91
2019-04-28T20:09:25.485Z,9.90
2019-04-28T20:11:55.323Z,9.85
2019-04-28T20:14:28.326Z,9.85
2019-04-28T20:16:57.823Z,9.91
2019-04-28T20:19:27.353Z,9.89
2019-04-28T20:22:00.499Z,9.83
2019-04-28T20:24:46.347Z,9.86
2019-04-28T20:27:05.034Z,10.02
2019-04-28T20:29:38.139Z,10.17
2019-04-28T20:32:09.281Z,9.91
2019-04-28T20:34:38.503Z,9.92
2019-04-28T20:37:33.499Z,9.80
2019-04-28T20:40:09.926Z,9.80
2019-04-28T20:43:02.199Z,9.62
2019-04-28T20:45:33.051Z,9.71
2019-04-28T20:48:03.352Z,9.29
2019-04-28T20:50:34.159Z,8.89
2019-04-28T20:53:03.703Z,8.89
2019-04-28T20:55:32.028Z,8.88
2019-04-28T20:58:01.618Z,8.88
2019-04-28T21:00:29.975Z,8.87
2019-04-28T21:02:59.790Z,8.85
2019-04-28T21:05:29.482Z,8.86
2019-04-28T21:08:00.175Z,8.89
2019-04-28T21:10:37.740Z,8.89
2019-04-28T21:13:01.802Z,8.93
2019-04-28T21:15:31.042Z,8.68
2019-04-28T21:18:00.531Z,8.53
2019-04-28T21:20:31.600Z,8.56
2019-04-28T21:23:00.866Z,8.45
2019-04-28T21:28:19.309Z,8.59
2019-04-28T21:30:48.155Z,8.59
2019-04-28T21:33:17.313Z,8.61
2019-04-28T21:35:46.330Z,8.75
2019-04-28T21:38:15.923Z,8.78
2019-04-28T21:40:54.526Z,8.64
2019-04-28T21:43:32.127Z,8.77
2019-04-28T21:46:23.875Z,8.77
2019-04-28T21:48:56.948Z,8.61
2019-04-28T21:51:26.411Z,8.64
2019-04-28T21:53:55.793Z,8.59
2019-04-28T21:56:24.675Z,8.24
2019-04-28T21:58:54.077Z,7.97
2019-04-28T22:01:23.872Z,7.79
2019-04-28T22:03:53.303Z,7.77
2019-04-28T22:06:22.504Z,7.81
2019-04-28T22:08:50.910Z,8.02
2019-04-28T22:11:20.088Z,7.89
2019-04-28T22:13:49.501Z,7.96
2019-04-28T22:16:18.892Z,7.79
2019-04-28T22:18:49.130Z,7.79
2019-04-28T22:21:17.940Z,7.62
2019-04-28T22:24:05.584Z,7.76
2019-04-28T22:26:43.313Z,7.63
2019-04-28T22:29:12.809Z,7.78
2019-04-28T22:31:42.959Z,7.64
2019-04-28T22:34:15.548Z,7.59
2019-04-28T22:36:46.027Z,7.35
2019-04-28T22:39:16.835Z,7.29
2019-04-28T22:41:46.035Z,7.18
2019-04-28T22:44:15.118Z,7.42
2019-04-28T22:46:44.426Z,7.44
2019-04-28T22:49:13.706Z,7.51
2019-04-28T22:51:43.606Z,7.57
2019-04-28T22:54:38.065Z,7.19
2019-04-28T22:57:45.960Z,7.19
2019-04-28T23:00:43.806Z,7.42
2019-04-28T23:03:17.953Z,7.80
2019-04-28T23:05:47.078Z,7.94
2019-04-28T23:08:16.174Z,7.83
2019-04-28T23:10:45.380Z,7.50
2019-04-28T23:16:00.320Z,7.82
2019-04-28T23:18:29.723Z,8.02
2019-04-28T23:21:01.130Z,7.30
2019-04-28T23:23:30.129Z,7.30
2019-04-28T23:26:02.916Z,7.32
2019-04-28T23:28:31.165Z,7.21
2019-04-28T23:31:00.087Z,6.88
2019-04-28T23:33:29.124Z,6.72
2019-04-28T23:35:58.445Z,6.84
2019-04-28T23:38:27.450Z,6.52
2019-04-28T23:41:13.883Z,6.54
2019-04-28T23:43:42.964Z,6.76
2019-04-28T23:46:11.946Z,6.81
2019-04-28T23:48:43.396Z,6.61
2019-04-28T23:51:22.874Z,6.57
2019-04-28T23:54:05.940Z,6.77
2019-04-28T23:56:36.516Z,6.82
2019-04-28T23:59:06.442Z,7.13
